createdAt,value
2023-05-09T00:00:05.101Z,50.902420
2023-05-09T00:01:05.093Z,50.902424
2023-05-09T00:02:05.085Z,50.902431
2023-05-09T00:03:06.258Z,50.902409
2023-05-09T00:04:05.092Z,50.902416
2023-05-09T00:05:05.109Z,50.902412
2023-05-09T00:06:05.051Z,50.902412
2023-05-09T00:07:05.094Z,50.902401
2023-05-09T00:08:05.065Z,50.902409
2023-05-09T00:09:05.012Z,50.902405
2023-05-09T00:10:06.018Z,50.902397
2023-05-09T00:11:05.001Z,50.902386
2023-05-09T00:12:05.066Z,50.902405
2023-05-09T00:13:05.092Z,50.902401
2023-05-09T00:14:04.997Z,50.902386
2023-05-09T00:15:05.069Z,50.902401
2023-05-09T00:16:05.087Z,50.902370
2023-05-09T00:17:05.014Z,50.902401
2023-05-09T00:18:05.101Z,50.902397
2023-05-09T00:19:05.057Z,50.902401
2023-05-09T00:20:05.052Z,50.902401
2023-05-09T00:21:05.081Z,50.902412
2023-05-09T00:22:04.950Z,50.902416
2023-05-09T00:23:04.915Z,50.902397
2023-05-09T00:24:04.899Z,50.902374
2023-05-09T00:25:04.896Z,50.902431
2023-05-09T00:26:04.916Z,50.902405
2023-05-09T00:27:04.879Z,50.902393
2023-05-09T00:28:04.874Z,50.902458
2023-05-09T00:29:04.865Z,50.902420
2023-05-09T00:30:04.872Z,50.902409
2023-05-09T00:31:04.892Z,50.902409
2023-05-09T00:32:04.888Z,50.902420
2023-05-09T00:33:04.882Z,50.902424
2023-05-09T00:34:04.841Z,50.902458
2023-05-09T00:35:04.905Z,50.902454
2023-05-09T00:36:04.842Z,50.902466
2023-05-09T00:37:04.804Z,50.902439
2023-05-09T00:38:04.842Z,50.902439
2023-05-09T00:39:04.797Z,50.902412
2023-05-09T00:40:04.808Z,50.902443
2023-05-09T00:41:04.808Z,50.902420
2023-05-09T00:42:04.776Z,50.902447
2023-05-09T00:43:04.766Z,50.902473
2023-05-09T00:44:04.757Z,50.902470
2023-05-09T00:45:04.771Z,50.902435
2023-05-09T00:46:04.812Z,50.902431
2023-05-09T00:47:04.733Z,50.902451
2023-05-09T00:48:04.774Z,50.902466
2023-05-09T00:49:04.736Z,50.902493
2023-05-09T00:50:04.734Z,50.902439
2023-05-09T00:51:04.785Z,50.902424
2023-05-09T00:52:04.758Z,50.902481
2023-05-09T00:53:04.715Z,50.902554
2023-05-09T00:54:05.557Z,50.902534
2023-05-09T00:55:04.777Z,50.902508
2023-05-09T00:56:04.655Z,50.902451
2023-05-09T00:57:04.669Z,50.902531
2023-05-09T00:58:04.649Z,50.902531
2023-05-09T00:59:04.671Z,50.902496
2023-05-09T01:00:04.653Z,50.902557
2023-05-09T01:01:04.684Z,50.902515
2023-05-09T01:02:04.649Z,50.902519
2023-05-09T01:03:04.667Z,50.902493
2023-05-09T01:04:04.625Z,50.902493
2023-05-09T01:05:04.591Z,50.902462
2023-05-09T01:06:04.599Z,50.902477
2023-05-09T01:07:04.653Z,50.902451
2023-05-09T01:08:04.595Z,50.902481
2023-05-09T01:09:04.585Z,50.902481
2023-05-09T01:10:04.550Z,50.902477
2023-05-09T01:11:04.554Z,50.902504
2023-05-09T01:12:04.543Z,50.902512
2023-05-09T01:13:04.589Z,50.902523
2023-05-09T01:14:04.521Z,50.902489
2023-05-09T01:15:04.512Z,50.902466
2023-05-09T01:16:04.555Z,50.902454
2023-05-09T01:17:04.499Z,50.902500
2023-05-09T01:18:04.586Z,50.902531
2023-05-09T01:19:04.494Z,50.902512
2023-05-09T01:20:04.491Z,50.902504
2023-05-09T01:21:04.480Z,50.902466
2023-05-09T01:22:04.494Z,50.902462
2023-05-09T01:23:04.572Z,50.902496
2023-05-09T01:24:04.464Z,50.902527
2023-05-09T01:25:04.449Z,50.902489
2023-05-09T01:26:04.440Z,50.902473
2023-05-09T01:27:04.455Z,50.902451
2023-05-09T01:28:04.419Z,50.902500
2023-05-09T01:29:04.419Z,50.902515
2023-05-09T01:30:04.428Z,50.902523
2023-05-09T01:31:04.408Z,50.902493
2023-05-09T01:32:04.426Z,50.902500
2023-05-09T01:33:04.450Z,50.902485
2023-05-09T01:34:04.392Z,50.902470
2023-05-09T01:35:04.393Z,50.902527
2023-05-09T01:36:04.392Z,50.902493
2023-05-09T01:37:04.374Z,50.902470
2023-05-09T01:38:04.337Z,50.902477
2023-05-09T01:39:04.426Z,50.902473
2023-05-09T01:40:04.340Z,50.902458
2023-05-09T01:41:04.347Z,50.902477
2023-05-09T01:42:04.310Z,50.902485
2023-05-09T01:43:04.302Z,50.902489
2023-05-09T01:44:04.297Z,50.902454
2023-05-09T01:45:04.288Z,50.902473
2023-05-09T01:46:04.301Z,50.902439
2023-05-09T01:47:04.276Z,50.902473
2023-05-09T01:48:04.330Z,50.902470
2023-05-09T01:49:04.261Z,50.902481
2023-05-09T01:50:04.282Z,50.902477
2023-05-09T01:51:04.262Z,50.902493
2023-05-09T01:52:04.240Z,50.902458
2023-05-09T01:53:04.228Z,50.902485
2023-05-09T01:54:04.210Z,50.902431
2023-05-09T01:55:04.325Z,50.902390
2023-05-09T01:56:04.205Z,50.902409
2023-05-09T01:57:04.197Z,50.902489
2023-05-09T01:58:04.197Z,50.902473
2023-05-09T01:59:04.190Z,50.902424
2023-05-09T02:00:04.204Z,50.902454
2023-05-09T02:01:04.197Z,50.902470
2023-05-09T02:02:04.177Z,50.902363
2023-05-09T02:03:04.168Z,50.902317
2023-05-09T02:04:04.169Z,50.902420
2023-05-09T02:05:04.156Z,50.902424
2023-05-09T02:06:04.133Z,50.902401
2023-05-09T02:07:04.122Z,50.902512
2023-05-09T02:08:04.116Z,50.902508
2023-05-09T02:09:04.140Z,50.902451
2023-05-09T02:10:04.104Z,50.902470
2023-05-09T02:11:04.204Z,50.902424
2023-05-09T02:12:04.077Z,50.902519
2023-05-09T02:13:04.162Z,50.902466
2023-05-09T02:14:04.090Z,50.902454
2023-05-09T02:15:04.052Z,50.902424
2023-05-09T02:16:04.060Z,50.902496
2023-05-09T02:17:04.081Z,50.902527
2023-05-09T02:18:04.101Z,50.902454
2023-05-09T02:19:04.060Z,50.902458
2023-05-09T02:20:04.024Z,50.902485
2023-05-09T02:21:04.042Z,50.902443
2023-05-09T02:22:04.003Z,50.902424
2023-05-09T02:23:04.043Z,50.902431
2023-05-09T02:24:03.986Z,50.902462
2023-05-09T02:25:03.978Z,50.902462
2023-05-09T02:26:03.980Z,50.902527
2023-05-09T02:27:04.045Z,50.902470
2023-05-09T02:28:03.983Z,50.902443
2023-05-09T02:29:03.952Z,50.902466
2023-05-09T02:30:03.937Z,50.902473
2023-05-09T02:31:03.928Z,50.902485
2023-05-09T02:32:03.972Z,50.902451
2023-05-09T02:33:03.993Z,50.902481
2023-05-09T02:34:03.925Z,50.902466
2023-05-09T02:35:03.910Z,50.902466
2023-05-09T02:36:03.937Z,50.902477
2023-05-09T02:37:05.031Z,50.902454
2023-05-09T02:38:03.887Z,50.902435
2023-05-09T02:39:03.873Z,50.902451
2023-05-09T02:40:03.868Z,50.902454
2023-05-09T02:41:03.883Z,50.902519
2023-05-09T02:42:03.876Z,50.902477
2023-05-09T02:43:03.917Z,50.902462
2023-05-09T02:44:03.836Z,50.902466
2023-05-09T02:45:03.839Z,50.902493
2023-05-09T02:46:03.872Z,50.902481
2023-05-09T02:47:03.848Z,50.902489
2023-05-09T02:48:05.670Z,50.902489
2023-05-09T02:49:03.790Z,50.902458
2023-05-09T02:50:04.812Z,50.902496
2023-05-09T02:51:03.865Z,50.902512
2023-05-09T02:52:03.793Z,50.902458
2023-05-09T02:53:03.789Z,50.902451
2023-05-09T02:54:03.755Z,50.902473
2023-05-09T02:55:03.763Z,50.902435
2023-05-09T02:56:03.766Z,50.902439
2023-05-09T02:57:03.751Z,50.902439
2023-05-09T02:58:13.614Z,50.902409
2023-05-09T02:59:05.796Z,50.902439
2023-05-09T03:00:03.713Z,50.902435
2023-05-09T03:01:03.797Z,50.902477
2023-05-09T03:02:03.697Z,50.902424
2023-05-09T03:03:03.730Z,50.902454
2023-05-09T03:04:03.680Z,50.902496
2023-05-09T03:05:03.750Z,50.902447
2023-05-09T03:06:03.693Z,50.902454
2023-05-09T03:07:03.655Z,50.902458
2023-05-09T03:08:03.647Z,50.902496
2023-05-09T03:09:03.659Z,50.902473
2023-05-09T03:10:03.668Z,50.902477
2023-05-09T03:11:03.665Z,50.902431
2023-05-09T03:12:03.642Z,50.902481
2023-05-09T03:13:03.687Z,50.902454
2023-05-09T03:14:03.608Z,50.902458
2023-05-09T03:15:03.744Z,50.902477
2023-05-09T03:16:03.640Z,50.902496
2023-05-09T03:17:03.585Z,50.902458
2023-05-09T03:18:03.665Z,50.902454
2023-05-09T03:19:03.603Z,50.902462
2023-05-09T03:20:04.472Z,50.902443
2023-05-09T03:21:04.545Z,50.902443
2023-05-09T03:22:03.540Z,50.902466
2023-05-09T03:23:03.540Z,50.902493
2023-05-09T03:24:03.555Z,50.902473
2023-05-09T03:25:03.515Z,50.902470
2023-05-09T03:26:03.520Z,50.902439
2023-05-09T03:27:03.505Z,50.902451
2023-05-09T03:28:03.497Z,50.902443
2023-05-09T03:29:03.519Z,50.902470
2023-05-09T03:30:03.507Z,50.902477
2023-05-09T03:31:03.577Z,50.902473
2023-05-09T03:32:03.475Z,50.902447
2023-05-09T03:33:03.558Z,50.902443
2023-05-09T03:34:03.481Z,50.902458
2023-05-09T03:35:03.436Z,50.902470
2023-05-09T03:36:03.458Z,50.902466
2023-05-09T03:37:03.430Z,50.902458
2023-05-09T03:38:03.460Z,50.902420
2023-05-09T03:39:03.414Z,50.902416
2023-05-09T03:40:03.405Z,50.902390
2023-05-09T03:41:03.410Z,50.902405
2023-05-09T03:42:03.390Z,50.902424
2023-05-09T03:43:03.431Z,50.902451
2023-05-09T03:44:03.406Z,50.902374
2023-05-09T03:45:03.392Z,50.902412
2023-05-09T03:46:03.372Z,50.902435
2023-05-09T03:47:03.533Z,50.902409
2023-05-09T03:48:03.403Z,50.902485
2023-05-09T03:49:03.347Z,50.902515
2023-05-09T03:50:03.353Z,50.902470
2023-05-09T03:51:03.341Z,50.902401
2023-05-09T03:52:03.354Z,50.902431
2023-05-09T03:53:03.314Z,50.902435
2023-05-09T03:54:03.315Z,50.902416
2023-05-09T03:55:03.293Z,50.902412
2023-05-09T03:56:04.297Z,50.902424
2023-05-09T03:57:03.308Z,50.902397
2023-05-09T03:58:03.274Z,50.902355
2023-05-09T03:59:03.281Z,50.902390
2023-05-09T04:00:03.279Z,50.902420
2023-05-09T04:01:03.260Z,50.902386
2023-05-09T04:02:03.375Z,50.902416
2023-05-09T04:03:03.309Z,50.902393
2023-05-09T04:04:03.277Z,50.902348
2023-05-09T04:05:03.248Z,50.902390
2023-05-09T04:06:03.233Z,50.902428
2023-05-09T04:07:03.231Z,50.902405
2023-05-09T04:08:03.207Z,50.902401
2023-05-09T04:09:03.203Z,50.902409
2023-05-09T04:10:03.197Z,50.902409
2023-05-09T04:11:03.189Z,50.902409
2023-05-09T04:12:04.165Z,50.902393
2023-05-09T04:13:03.260Z,50.902390
2023-05-09T04:14:03.159Z,50.902390
2023-05-09T04:15:03.169Z,50.902416
2023-05-09T04:16:03.182Z,50.902401
2023-05-09T04:17:03.373Z,50.902412
2023-05-09T04:18:04.209Z,50.902416
2023-05-09T04:19:03.203Z,50.902390
2023-05-09T04:20:03.181Z,50.902397
2023-05-09T04:21:03.132Z,50.902370
2023-05-09T04:22:03.183Z,50.902397
2023-05-09T04:23:03.106Z,50.902378
2023-05-09T04:24:03.090Z,50.902397
2023-05-09T04:25:03.113Z,50.902386
2023-05-09T04:26:03.096Z,50.902374
2023-05-09T04:27:03.067Z,50.902378
2023-05-09T04:28:03.056Z,50.902386
2023-05-09T04:29:03.051Z,50.902393
2023-05-09T04:30:03.076Z,50.902378
2023-05-09T04:31:03.108Z,50.902378
2023-05-09T04:32:03.143Z,50.902393
2023-05-09T04:33:03.086Z,50.902386
2023-05-09T04:34:03.042Z,50.902393
2023-05-09T04:35:03.112Z,50.902382
2023-05-09T04:36:02.994Z,50.902390
2023-05-09T04:37:03.019Z,50.902386
2023-05-09T04:38:03.003Z,50.902370
2023-05-09T04:39:03.007Z,50.902378
2023-05-09T04:40:02.963Z,50.902390
2023-05-09T04:41:02.958Z,50.902386
2023-05-09T04:42:02.945Z,50.902374
2023-05-09T04:43:02.936Z,50.902378
2023-05-09T04:44:02.957Z,50.902386
2023-05-09T04:45:02.954Z,50.902378
2023-05-09T04:46:02.943Z,50.902416
2023-05-09T04:47:02.909Z,50.902397
2023-05-09T04:48:02.970Z,50.902393
2023-05-09T04:49:02.930Z,50.902401
2023-05-09T04:50:02.897Z,50.902370
2023-05-09T04:51:02.979Z,50.902370
2023-05-09T04:52:02.875Z,50.902351
2023-05-09T04:53:02.896Z,50.902378
2023-05-09T04:54:02.876Z,50.902355
2023-05-09T04:55:02.907Z,50.902374
2023-05-09T04:56:02.841Z,50.902390
2023-05-09T04:57:13.665Z,50.902401
2023-05-09T04:58:04.850Z,50.902401
2023-05-09T04:59:02.818Z,50.902382
2023-05-09T05:00:02.822Z,50.902393
2023-05-09T05:01:02.811Z,50.902405
2023-05-09T05:02:02.972Z,50.902370
2023-05-09T05:03:02.821Z,50.902363
2023-05-09T05:04:02.779Z,50.902367
2023-05-09T05:05:11.622Z,50.902370
2023-05-09T05:06:04.841Z,50.902378
2023-05-09T05:07:02.830Z,50.902393
2023-05-09T05:08:02.769Z,50.902378
2023-05-09T05:09:02.738Z,50.902328
2023-05-09T05:10:02.741Z,50.902370
2023-05-09T05:11:02.720Z,50.902370
2023-05-09T05:12:04.821Z,50.902367
2023-05-09T05:13:03.746Z,50.902340
2023-05-09T05:14:02.711Z,50.902348
2023-05-09T05:15:02.700Z,50.902367
2023-05-09T05:16:02.709Z,50.902355
2023-05-09T05:17:02.705Z,50.902351
2023-05-09T05:18:02.711Z,50.902363
2023-05-09T05:19:02.676Z,50.902344
2023-05-09T05:20:02.708Z,50.902382
2023-05-09T05:21:02.680Z,50.902374
2023-05-09T05:22:02.749Z,50.902390
2023-05-09T05:23:02.639Z,50.902370
2023-05-09T05:24:02.737Z,50.902355
2023-05-09T05:25:02.678Z,50.902390
2023-05-09T05:26:02.748Z,50.902386
2023-05-09T05:27:02.610Z,50.902409
2023-05-09T05:28:02.607Z,50.902412
2023-05-09T05:29:02.589Z,50.902367
2023-05-09T05:30:02.583Z,50.902386
2023-05-09T05:31:02.605Z,50.902382
2023-05-09T05:32:02.585Z,50.902359
2023-05-09T05:33:02.583Z,50.902351
2023-05-09T05:34:02.549Z,50.902348
2023-05-09T05:35:02.612Z,50.902374
2023-05-09T05:36:02.559Z,50.902325
2023-05-09T05:37:02.562Z,50.902370
2023-05-09T05:38:02.608Z,50.902393
2023-05-09T05:39:02.508Z,50.902363
2023-05-09T05:40:02.566Z,50.902348
2023-05-09T05:41:02.496Z,50.902321
2023-05-09T05:42:35.258Z,50.902378
2023-05-09T05:43:02.483Z,50.902409
2023-05-09T05:44:02.477Z,50.902435
2023-05-09T05:45:02.491Z,50.902367
2023-05-09T05:46:02.479Z,50.902306
2023-05-09T05:47:02.477Z,50.902321
2023-05-09T05:48:02.558Z,50.902325
2023-05-09T05:49:02.458Z,50.902412
2023-05-09T05:50:02.451Z,50.902454
2023-05-09T05:51:02.410Z,50.902393
2023-05-09T05:52:03.402Z,50.902355
2023-05-09T05:53:02.403Z,50.902328
2023-05-09T05:54:02.573Z,50.902355
2023-05-09T05:55:02.388Z,50.902382
2023-05-09T05:56:02.394Z,50.902386
2023-05-09T05:57:02.408Z,50.902328
2023-05-09T05:58:02.377Z,50.902332
2023-05-09T05:59:02.384Z,50.902386
2023-05-09T06:00:02.351Z,50.902401
2023-05-09T06:01:02.352Z,50.902370
2023-05-09T06:02:02.390Z,50.902390
2023-05-09T06:03:02.406Z,50.902393
2023-05-09T06:04:02.391Z,50.902397
2023-05-09T06:05:02.316Z,50.902409
2023-05-09T06:06:02.311Z,50.902428
2023-05-09T06:07:02.315Z,50.902344
2023-05-09T06:08:02.381Z,50.902386
2023-05-09T06:09:02.306Z,50.902405
2023-05-09T06:10:02.268Z,50.902428
2023-05-09T06:11:02.263Z,50.902431
2023-05-09T06:12:02.250Z,50.902416
2023-05-09T06:13:02.343Z,50.902355
2023-05-09T06:14:02.251Z,50.902348
2023-05-09T06:15:02.239Z,50.902401
2023-05-09T06:16:15.021Z,50.902397
2023-05-09T06:17:04.266Z,50.902412
2023-05-09T06:18:02.270Z,50.902447
2023-05-09T06:19:02.222Z,50.902405
2023-05-09T06:20:02.191Z,50.902409
2023-05-09T06:21:02.203Z,50.902412
2023-05-09T06:22:02.239Z,50.902370
2023-05-09T06:23:02.176Z,50.902409
2023-05-09T06:24:11.892Z,50.902435
2023-05-09T06:25:04.161Z,50.902447
2023-05-09T06:26:02.235Z,50.902412
2023-05-09T06:27:02.165Z,50.902401
2023-05-09T06:28:02.130Z,50.902405
2023-05-09T06:29:02.174Z,50.902485
2023-05-09T06:30:08.309Z,50.902382
2023-05-09T06:31:04.225Z,50.902374
2023-05-09T06:32:02.136Z,50.902390
2023-05-09T06:33:02.120Z,50.902493
2023-05-09T06:34:02.100Z,50.902473
2023-05-09T06:35:02.084Z,50.902531
2023-05-09T06:36:02.098Z,50.902519
2023-05-09T06:37:02.065Z,50.902443
2023-05-09T06:38:02.068Z,50.902458
2023-05-09T06:39:02.103Z,50.902302
2023-05-09T06:40:02.054Z,50.902374
2023-05-09T06:41:02.062Z,50.902397
2023-05-09T06:42:02.123Z,50.902397
2023-05-09T06:43:02.021Z,50.902409
2023-05-09T06:44:02.012Z,50.902412
2023-05-09T06:45:17.113Z,50.902309
2023-05-09T06:46:02.046Z,50.902336
2023-05-09T06:47:01.997Z,50.902443
2023-05-09T06:48:02.012Z,50.902405
2023-05-09T06:49:02.014Z,50.902370
2023-05-09T06:50:02.010Z,50.902386
2023-05-09T06:51:02.017Z,50.902298
2023-05-09T06:52:01.955Z,50.902382
2023-05-09T06:53:01.959Z,50.902363
2023-05-09T06:54:01.940Z,50.902351
2023-05-09T06:55:02.043Z,50.902355
2023-05-09T06:56:01.924Z,50.902386
2023-05-09T06:57:01.911Z,50.902336
2023-05-09T06:58:01.990Z,50.902416
2023-05-09T06:59:01.919Z,50.902328
2023-05-09T07:00:02.389Z,50.902397
2023-05-09T07:01:01.893Z,50.902374
2023-05-09T07:02:01.956Z,50.902313
2023-05-09T07:03:01.924Z,50.902325
2023-05-09T07:04:01.913Z,50.902374
2023-05-09T07:05:01.957Z,50.902416
2023-05-09T07:06:01.850Z,50.902405
2023-05-09T07:07:01.848Z,50.902485
2023-05-09T07:08:01.832Z,50.902477
2023-05-09T07:09:01.853Z,50.902390
2023-05-09T07:10:10.683Z,50.902454
2023-05-09T07:11:03.812Z,50.902409
2023-05-09T07:12:01.813Z,50.902386
2023-05-09T07:13:01.807Z,50.902420
2023-05-09T07:14:01.906Z,50.902367
2023-05-09T07:15:01.807Z,50.902374
2023-05-09T07:16:01.806Z,50.902409
2023-05-09T07:17:18.153Z,50.902386
2023-05-09T07:18:03.794Z,50.902390
2023-05-09T07:19:01.775Z,50.902378
2023-05-09T07:20:01.743Z,50.902370
2023-05-09T07:21:01.734Z,50.902378
2023-05-09T07:22:01.753Z,50.902401
2023-05-09T07:23:01.824Z,50.902409
2023-05-09T07:24:01.754Z,50.902401
2023-05-09T07:25:01.703Z,50.902401
2023-05-09T07:26:01.699Z,50.902409
2023-05-09T07:27:01.692Z,50.902416
2023-05-09T07:28:01.700Z,50.902405
2023-05-09T07:29:01.684Z,50.902397
2023-05-09T07:30:01.764Z,50.902393
2023-05-09T07:31:01.658Z,50.902397
2023-05-09T07:32:01.730Z,50.902393
2023-05-09T07:33:01.898Z,50.902401
2023-05-09T07:34:01.637Z,50.902390
2023-05-09T07:35:01.634Z,50.902390
2023-05-09T07:36:01.619Z,50.902405
2023-05-09T07:37:01.637Z,50.902416
2023-05-09T07:38:01.597Z,50.902409
2023-05-09T07:39:01.600Z,50.902378
2023-05-09T07:40:01.600Z,50.902412
2023-05-09T07:41:01.610Z,50.902431
2023-05-09T07:42:01.605Z,50.902405
2023-05-09T07:43:01.572Z,50.902397
2023-05-09T07:44:01.551Z,50.902424
2023-05-09T07:45:01.541Z,50.902397
2023-05-09T07:46:01.756Z,50.902374
2023-05-09T07:47:01.553Z,50.902405
2023-05-09T07:48:01.605Z,50.902409
2023-05-09T07:49:01.525Z,50.902382
2023-05-09T07:50:01.524Z,50.902363
2023-05-09T07:51:01.524Z,50.902397
2023-05-09T07:52:01.492Z,50.902393
2023-05-09T07:53:01.498Z,50.902393
2023-05-09T07:54:01.475Z,50.902393
2023-05-09T07:55:01.499Z,50.902370
2023-05-09T07:56:01.499Z,50.902374
2023-05-09T07:57:01.444Z,50.902393
2023-05-09T07:58:01.447Z,50.902313
2023-05-09T07:59:01.448Z,50.902279
2023-05-09T08:00:01.459Z,50.902279
2023-05-09T08:01:01.450Z,50.902321
2023-05-09T08:02:01.524Z,50.902367
2023-05-09T08:03:01.633Z,50.902367
2023-05-09T08:04:01.502Z,50.902393
2023-05-09T08:05:01.435Z,50.902386
2023-05-09T08:06:01.385Z,50.902382
2023-05-09T08:07:01.373Z,50.902374
2023-05-09T08:08:01.367Z,50.902420
2023-05-09T08:09:02.363Z,50.902390
2023-05-09T08:10:01.375Z,50.902370
2023-05-09T08:11:01.380Z,50.902378
2023-05-09T08:12:01.338Z,50.902416
2023-05-09T08:13:01.368Z,50.902405
2023-05-09T08:14:01.346Z,50.902332
2023-05-09T08:15:01.382Z,50.902435
2023-05-09T08:16:01.364Z,50.902397
2023-05-09T08:17:01.301Z,50.902523
2023-05-09T08:18:01.433Z,50.902443
2023-05-09T08:19:01.309Z,50.902359
2023-05-09T08:20:01.308Z,50.902466
2023-05-09T08:21:01.270Z,50.902401
2023-05-09T08:22:01.299Z,50.902332
2023-05-09T08:23:02.262Z,50.902416
2023-05-09T08:24:01.279Z,50.902454
2023-05-09T08:25:01.248Z,50.902458
2023-05-09T08:26:01.252Z,50.902538
2023-05-09T08:27:01.236Z,50.902573
2023-05-09T08:28:01.249Z,50.902512
2023-05-09T08:29:01.247Z,50.902386
2023-05-09T08:30:01.232Z,50.902340
2023-05-09T08:31:01.267Z,50.902321
2023-05-09T08:32:01.207Z,50.902355
2023-05-09T08:33:01.257Z,50.902390
2023-05-09T08:34:01.253Z,50.902412
2023-05-09T08:35:01.157Z,50.902393
2023-05-09T08:36:01.180Z,50.902405
2023-05-09T08:37:01.157Z,50.902386
2023-05-09T08:38:01.190Z,50.902393
2023-05-09T08:39:01.135Z,50.902363
2023-05-09T08:40:01.126Z,50.902370
2023-05-09T08:41:01.121Z,50.902382
2023-05-09T08:42:01.116Z,50.902397
2023-05-09T08:43:01.127Z,50.902405
2023-05-09T08:44:01.101Z,50.902374
2023-05-09T08:45:01.090Z,50.902378
2023-05-09T08:46:01.213Z,50.902374
2023-05-09T08:47:01.270Z,50.902386
2023-05-09T08:48:01.120Z,50.902386
2023-05-09T08:49:01.061Z,50.902416
2023-05-09T08:50:01.151Z,50.902409
2023-05-09T08:51:01.072Z,50.902447
2023-05-09T08:52:01.063Z,50.902420
2023-05-09T08:53:01.047Z,50.902412
2023-05-09T08:54:02.018Z,50.902451
2023-05-09T08:55:01.032Z,50.902416
2023-05-09T08:56:01.009Z,50.902416
2023-05-09T08:57:01.016Z,50.902378
2023-05-09T08:58:00.987Z,50.902435
2023-05-09T08:59:00.998Z,50.902397
2023-05-09T09:00:00.969Z,50.902370
2023-05-09T09:01:00.965Z,50.902348
2023-05-09T09:02:01.012Z,50.902386
2023-05-09T09:03:00.969Z,50.902382
2023-05-09T09:04:00.956Z,50.902382
2023-05-09T09:05:00.948Z,50.902390
2023-05-09T09:06:01.090Z,50.902409
2023-05-09T09:07:00.961Z,50.902344
2023-05-09T09:08:00.914Z,50.902386
2023-05-09T09:09:00.910Z,50.902416
2023-05-09T09:10:00.904Z,50.902397
2023-05-09T09:11:00.929Z,50.902386
2023-05-09T09:12:00.905Z,50.902382
2023-05-09T09:13:00.879Z,50.902382
2023-05-09T09:14:01.851Z,50.902367
2023-05-09T09:15:00.889Z,50.902393
2023-05-09T09:16:00.949Z,50.902397
2023-05-09T09:17:00.878Z,50.902405
2023-05-09T09:18:01.078Z,50.902431
2023-05-09T09:19:00.828Z,50.902363
2023-05-09T09:20:00.843Z,50.902351
2023-05-09T09:21:00.838Z,50.902348
2023-05-09T09:22:00.900Z,50.902355
2023-05-09T09:23:00.801Z,50.902348
2023-05-09T09:24:00.802Z,50.902386
2023-05-09T09:25:00.836Z,50.902378
2023-05-09T09:26:01.017Z,50.902420
2023-05-09T09:27:00.768Z,50.902451
2023-05-09T09:28:00.756Z,50.902390
2023-05-09T09:29:00.764Z,50.902386
2023-05-09T09:30:00.794Z,50.902340
2023-05-09T09:31:00.743Z,50.902317
2023-05-09T09:32:00.777Z,50.902344
2023-05-09T09:33:00.802Z,50.902367
2023-05-09T09:34:00.734Z,50.902382
2023-05-09T09:35:01.751Z,50.902378
2023-05-09T09:36:00.709Z,50.902378
2023-05-09T09:37:00.735Z,50.902390
2023-05-09T09:38:00.775Z,50.902397
2023-05-09T09:39:00.705Z,50.902416
2023-05-09T09:40:00.678Z,50.902397
2023-05-09T09:41:00.661Z,50.902412
2023-05-09T09:42:00.783Z,50.902397
2023-05-09T09:43:00.652Z,50.902409
2023-05-09T09:44:00.669Z,50.902424
2023-05-09T09:45:00.627Z,50.902393
2023-05-09T09:46:00.653Z,50.902397
2023-05-09T09:47:00.611Z,50.902397
2023-05-09T09:48:00.660Z,50.902378
2023-05-09T09:49:00.629Z,50.902363
2023-05-09T09:50:00.601Z,50.902397
2023-05-09T09:51:00.585Z,50.902393
2023-05-09T09:52:00.585Z,50.902382
2023-05-09T09:53:00.606Z,50.902409
2023-05-09T09:54:00.564Z,50.902374
2023-05-09T09:55:00.551Z,50.902386
2023-05-09T09:56:00.564Z,50.902390
2023-05-09T09:57:00.546Z,50.902382
2023-05-09T09:58:00.557Z,50.902363
2023-05-09T09:59:00.522Z,50.902367
2023-05-09T10:00:00.545Z,50.902393
2023-05-09T10:01:00.515Z,50.902378
2023-05-09T10:02:00.530Z,50.902405
2023-05-09T10:03:00.550Z,50.902401
2023-05-09T10:04:01.522Z,50.902443
2023-05-09T10:05:00.477Z,50.902405
2023-05-09T10:06:00.467Z,50.902390
2023-05-09T10:07:00.496Z,50.902416
2023-05-09T10:08:00.468Z,50.902397
2023-05-09T10:09:00.447Z,50.902477
2023-05-09T10:10:00.539Z,50.902496
2023-05-09T10:11:00.432Z,50.902466
2023-05-09T10:12:00.450Z,50.902378
2023-05-09T10:13:00.452Z,50.902348
2023-05-09T10:14:00.415Z,50.902348
2023-05-09T10:15:00.406Z,50.902382
2023-05-09T10:16:00.596Z,50.902382
2023-05-09T10:17:00.455Z,50.902393
2023-05-09T10:18:01.506Z,50.902332
2023-05-09T10:19:00.396Z,50.902351
2023-05-09T10:20:00.363Z,50.902370
2023-05-09T10:21:00.399Z,50.902393
2023-05-09T10:22:00.359Z,50.902397
2023-05-09T10:23:00.344Z,50.902367
2023-05-09T10:24:00.355Z,50.902363
2023-05-09T10:25:00.339Z,50.902374
2023-05-09T10:26:00.419Z,50.902367
2023-05-09T10:27:00.319Z,50.902397
2023-05-09T10:28:00.307Z,50.902370
2023-05-09T10:29:00.300Z,50.902306
2023-05-09T10:30:00.325Z,50.902351
2023-05-09T10:31:00.337Z,50.902363
2023-05-09T10:32:00.268Z,50.902348
2023-05-09T10:33:00.296Z,50.902359
2023-05-09T10:34:00.256Z,50.902348
2023-05-09T10:35:00.278Z,50.902340
2023-05-09T10:36:00.278Z,50.902355
2023-05-09T10:37:00.243Z,50.902367
2023-05-09T10:38:00.226Z,50.902359
2023-05-09T10:39:00.222Z,50.902359
2023-05-09T10:40:00.231Z,50.902374
2023-05-09T10:41:00.199Z,50.902367
2023-05-09T10:42:00.281Z,50.902344
2023-05-09T10:43:00.222Z,50.902321
2023-05-09T10:44:00.203Z,50.902355
2023-05-09T10:45:00.264Z,50.902363
2023-05-09T10:46:00.168Z,50.902367
2023-05-09T10:47:00.292Z,50.902390
2023-05-09T10:48:00.261Z,50.902348
2023-05-09T10:49:00.174Z,50.902328
2023-05-09T10:50:00.165Z,50.902367
2023-05-09T10:51:00.125Z,50.902367
2023-05-09T10:52:00.145Z,50.902363
2023-05-09T10:53:00.128Z,50.902336
2023-05-09T10:54:00.146Z,50.902367
2023-05-09T10:55:00.144Z,50.902382
2023-05-09T10:56:00.122Z,50.902397
2023-05-09T10:57:00.099Z,50.902374
2023-05-09T10:58:00.192Z,50.902397
2023-05-09T10:59:00.111Z,50.902409
2023-05-09T11:00:00.077Z,50.902412
2023-05-09T11:01:00.099Z,50.902390
2023-05-09T11:02:00.080Z,50.902370
2023-05-09T11:03:00.180Z,50.902378
2023-05-09T11:04:00.156Z,50.902390
2023-05-09T11:05:00.030Z,50.902374
2023-05-09T11:06:00.075Z,50.902363
2023-05-09T11:07:00.027Z,50.902302
2023-05-09T11:08:00.054Z,50.902332
2023-05-09T11:08:59.995Z,50.902378
2023-05-09T11:09:59.991Z,50.902367
2023-05-09T11:10:59.982Z,50.902355
2023-05-09T11:11:59.986Z,50.902355
2023-05-09T11:13:00.029Z,50.902348
2023-05-09T11:14:00.050Z,50.902355
2023-05-09T11:14:59.968Z,50.902306
2023-05-09T11:16:00.080Z,50.902294
2023-05-09T11:16:59.977Z,50.902290
2023-05-09T11:18:00.005Z,50.902309
2023-05-09T11:18:59.934Z,50.902351
2023-05-09T11:19:59.930Z,50.902332
2023-05-09T11:20:59.938Z,50.902359
2023-05-09T11:21:59.940Z,50.902325
2023-05-09T11:22:59.903Z,50.902340
2023-05-09T11:23:59.888Z,50.902386